Time;durP1;ratioP1;P1;durP2;ratioP2;P2;SDS_P1;SDS_P2;PMS_P1;PMS_P2;Temp;Humidity;BMP_temperature;BMP_pressure;BME280_temperature;BME280_humidity;BME280_pressure;Samples;Min_cycle;Max_cycle;Signal;HPM_P1;HPM_P2
2023/06/20 00:01:22;;;;;;;22.85;7.10;;;;;;;;;;4956207;28;20038;-70
2023/06/20 00:03:48;;;;;;;28.80;6.32;;;;;;;;;;4957757;28;20187;-71
2023/06/20 00:06:15;;;;;;;19.67;6.45;;;;;;;;;;4954925;28;20026;-70
2023/06/20 00:08:41;;;;;;;23.35;6.75;;;;;;;;;;4959455;28;20132;-71
2023/06/20 00:11:07;;;;;;;24.42;6.90;;;;;;;;;;4958776;28;20351;-71
2023/06/20 00:13:34;;;;;;;20.35;6.45;;;;;;;;;;4960325;28;20030;-70
2023/06/20 00:16:01;;;;;;;22.95;6.40;;;;;;;;;;4957847;28;20022;-70
2023/06/20 00:18:27;;;;;;;29.63;8.13;;;;;;;;;;4959147;28;20038;-70
2023/06/20 00:20:53;;;;;;;22.38;6.38;;;;;;;;;;4961404;28;20050;-70
2023/06/20 00:23:21;;;;;;;25.35;7.45;;;;;;;;;;4958628;28;20027;-71
2023/06/20 00:25:47;;;;;;;26.58;7.32;;;;;;;;;;4964627;28;21197;-69
2023/06/20 00:28:16;;;;;;;28.60;7.47;;;;;;;;;;4963695;28;20699;-70
2023/06/20 00:30:42;;;;;;;24.80;6.22;;;;;;;;;;4965130;28;20402;-70
2023/06/20 00:33:08;;;;;;;25.92;7.03;;;;;;;;;;4962120;28;20477;-69
2023/06/20 00:35:34;;;;;;;24.67;7.07;;;;;;;;;;4958885;28;20038;-70
2023/06/20 00:38:03;;;;;;;22.35;6.85;;;;;;;;;;4964045;28;20444;-70
2023/06/20 00:40:30;;;;;;;23.25;7.00;;;;;;;;;;4948732;28;20124;-70
2023/06/20 00:42:56;;;;;;;23.23;7.00;;;;;;;;;;4948644;28;20037;-70
2023/06/20 00:45:25;;;;;;;25.52;7.07;;;;;;;;;;4964857;28;20038;-70
2023/06/20 00:47:52;;;;;;;23.17;7.03;;;;;;;;;;4948942;28;20058;-70
2023/06/20 00:50:19;;;;;;;21.52;6.97;;;;;;;;;;4958990;28;20055;-70
2023/06/20 00:52:45;;;;;;;22.65;6.50;;;;;;;;;;4963709;28;20034;-71
2023/06/20 00:55:11;;;;;;;27.25;7.20;;;;;;;;;;4961078;28;20038;-70
2023/06/20 00:57:38;;;;;;;25.38;7.40;;;;;;;;;;4966280;28;20322;-69
2023/06/20 01:00:11;;;;;;;32.35;7.50;;;;;;;;;;4964821;28;20026;-70
2023/06/20 01:02:37;;;;;;;22.63;6.95;;;;;;;;;;4962727;28;20034;-69
2023/06/20 01:05:04;;;;;;;32.40;7.63;;;;;;;;;;4962653;28;20042;-69
2023/06/20 01:07:30;;;;;;;25.60;7.50;;;;;;;;;;4959159;28;20031;-69
2023/06/20 01:09:56;;;;;;;22.35;7.10;;;;;;;;;;4948231;28;20380;-70
2023/06/20 01:12:29;;;;;;;21.88;6.18;;;;;;;;;;4963195;28;20026;-70
2023/06/20 01:15:16;;;;;;;24.50;6.88;;;;;;;;;;4964095;28;20041;-71
2023/06/20 01:17:51;;;;;;;26.85;7.22;;;;;;;;;;4962727;28;20078;-70
2023/06/20 01:20:34;;;;;;;25.25;7.18;;;;;;;;;;4962497;28;20045;-72
2023/06/20 01:23:08;;;;;;;22.40;6.90;;;;;;;;;;4946373;28;20489;-70
2023/06/20 01:25:53;;;;;;;24.10;6.82;;;;;;;;;;4963472;28;20030;-70
2023/06/20 01:28:19;;;;;;;22.73;7.38;;;;;;;;;;4948915;28;20031;-70
2023/06/20 01:31:04;;;;;;;23.27;6.65;;;;;;;;;;4951776;28;20036;-69
2023/06/20 01:33:32;;;;;;;24.80;7.05;;;;;;;;;;4963637;28;20132;-69
2023/06/20 01:36:00;;;;;;;26.90;7.28;;;;;;;;;;4961827;28;20053;-68
2023/06/20 01:38:28;;;;;;;23.15;6.80;;;;;;;;;;4960658;28;20161;-69
2023/06/20 01:40:55;;;;;;;26.92;6.90;;;;;;;;;;4964451;28;20034;-70
2023/06/20 01:43:22;;;;;;;23.67;6.97;;;;;;;;;;4946954;28;20027;-71
2023/06/20 01:45:49;;;;;;;25.80;6.38;;;;;;;;;;4962960;28;20566;-69
2023/06/20 01:48:16;;;;;;;24.15;6.88;;;;;;;;;;4959773;28;20129;-70
2023/06/20 01:50:43;;;;;;;21.15;6.82;;;;;;;;;;4961199;28;20054;-69
2023/06/20 01:53:09;;;;;;;23.10;6.82;;;;;;;;;;4962368;28;20353;-69
2023/06/20 01:55:37;;;;;;;21.63;7.28;;;;;;;;;;4963025;28;20247;-69
2023/06/20 01:58:04;;;;;;;24.23;7.22;;;;;;;;;;4966371;28;20240;-70
2023/06/20 02:00:32;;;;;;;24.85;7.55;;;;;;;;;;4961977;28;20030;-69
2023/06/20 02:02:58;;;;;;;26.70;7.00;;;;;;;;;;4965242;28;20645;-70
2023/06/20 02:05:26;;;;;;;30.52;6.65;;;;;;;;;;4961942;28;20105;-69
2023/06/20 02:07:53;;;;;;;24.00;6.70;;;;;;;;;;4965146;28;20045;-69
2023/06/20 02:10:21;;;;;;;23.85;7.32;;;;;;;;;;4962557;28;20050;-70
2023/06/20 02:12:48;;;;;;;26.05;7.82;;;;;;;;;;4966024;28;20023;-68
2023/06/20 02:15:15;;;;;;;20.50;7.20;;;;;;;;;;4959462;28;20120;-69
2023/06/20 02:17:42;;;;;;;22.50;6.53;;;;;;;;;;4965663;28;20030;-69
2023/06/20 02:20:08;;;;;;;25.73;7.47;;;;;;;;;;4961051;28;20046;-70
2023/06/20 02:22:36;;;;;;;21.02;7.15;;;;;;;;;;4966321;28;20093;-68
2023/06/20 02:25:07;;;;;;;25.70;7.13;;;;;;;;;;4964447;28;20030;-69
2023/06/20 02:27:33;;;;;;;27.13;7.55;;;;;;;;;;4964151;28;20537;-69
2023/06/20 02:30:01;;;;;;;22.20;6.63;;;;;;;;;;4964731;28;20038;-68
2023/06/20 02:32:27;;;;;;;23.35;6.95;;;;;;;;;;4963434;28;20472;-69
2023/06/20 02:34:55;;;;;;;23.80;6.65;;;;;;;;;;4966997;28;20035;-65
2023/06/20 02:37:22;;;;;;;23.88;6.90;;;;;;;;;;4962180;28;20128;-65
2023/06/20 02:39:49;;;;;;;26.55;6.72;;;;;;;;;;4950002;28;20030;-65
2023/06/20 02:42:15;;;;;;;24.17;7.20;;;;;;;;;;4958470;28;20319;-66
2023/06/20 02:44:41;;;;;;;23.42;6.75;;;;;;;;;;4966439;28;20029;-65
2023/06/20 02:47:19;;;;;;;25.00;6.43;;;;;;;;;;4946100;28;20034;-65
2023/06/20 02:50:15;;;;;;;21.85;7.15;;;;;;;;;;4966673;28;20536;-65
2023/06/20 02:52:44;;;;;;;23.58;7.07;;;;;;;;;;4953165;28;20073;-65
2023/06/20 02:55:29;;;;;;;25.98;7.10;;;;;;;;;;4961004;28;20038;-66
2023/06/20 02:57:57;;;;;;;27.05;7.00;;;;;;;;;;4965718;28;20443;-66
2023/06/20 03:00:24;;;;;;;24.98;7.43;;;;;;;;;;4945648;28;20475;-66
2023/06/20 03:02:51;;;;;;;23.67;7.38;;;;;;;;;;4965478;28;20022;-65
2023/06/20 03:05:20;;;;;;;21.77;7.53;;;;;;;;;;4957246;28;20064;-65
2023/06/20 03:07:47;;;;;;;20.85;7.65;;;;;;;;;;4963010;28;20268;-65
2023/06/20 03:10:13;;;;;;;28.60;7.55;;;;;;;;;;4958500;28;20041;-66
2023/06/20 03:12:39;;;;;;;27.85;7.47;;;;;;;;;;4966666;28;20406;-65
2023/06/20 03:15:05;;;;;;;29.60;6.90;;;;;;;;;;4961916;28;20038;-65
2023/06/20 03:17:35;;;;;;;20.77;6.60;;;;;;;;;;4962919;28;20036;-66
2023/06/20 03:20:03;;;;;;;20.83;6.93;;;;;;;;;;4961425;28;20034;-65
2023/06/20 03:22:30;;;;;;;24.77;7.32;;;;;;;;;;4959900;28;20036;-65
2023/06/20 03:24:56;;;;;;;22.88;7.45;;;;;;;;;;4963865;28;20034;-64
2023/06/20 03:27:22;;;;;;;28.30;7.78;;;;;;;;;;4958936;28;20034;-68
2023/06/20 03:29:48;;;;;;;24.25;6.70;;;;;;;;;;4964826;28;20285;-65
2023/06/20 03:32:14;;;;;;;23.15;7.30;;;;;;;;;;4961187;28;20709;-65
2023/06/20 03:34:40;;;;;;;22.85;6.97;;;;;;;;;;4963072;28;20551;-65
2023/06/20 03:37:06;;;;;;;26.23;7.75;;;;;;;;;;4949926;28;21414;-65
2023/06/20 03:39:33;;;;;;;26.33;7.10;;;;;;;;;;4962783;28;20030;-65
2023/06/20 03:41:59;;;;;;;23.13;6.70;;;;;;;;;;4950669;28;20034;-65
2023/06/20 03:44:25;;;;;;;26.95;7.72;;;;;;;;;;4961172;28;20032;-65
2023/06/20 03:46:51;;;;;;;26.73;7.50;;;;;;;;;;4964551;28;20038;-68
2023/06/20 03:49:17;;;;;;;31.25;7.68;;;;;;;;;;4960026;28;20106;-67
2023/06/20 03:51:43;;;;;;;27.05;7.47;;;;;;;;;;4964582;28;20488;-67
2023/06/20 03:54:09;;;;;;;23.42;7.60;;;;;;;;;;4959641;28;20448;-65
2023/06/20 03:56:35;;;;;;;24.02;7.38;;;;;;;;;;4961918;28;20026;-65
2023/06/20 03:59:02;;;;;;;24.45;6.85;;;;;;;;;;4962448;28;20101;-65
2023/06/20 04:01:28;;;;;;;23.23;6.85;;;;;;;;;;4959081;28;20026;-65
2023/06/20 04:03:55;;;;;;;28.00;7.57;;;;;;;;;;4961908;28;20038;-65
2023/06/20 04:06:30;;;;;;;22.55;7.18;;;;;;;;;;4959429;28;20035;-65
2023/06/20 04:08:57;;;;;;;21.92;6.78;;;;;;;;;;4962814;28;20034;-66
2023/06/20 04:11:23;;;;;;;29.90;8.15;;;;;;;;;;4960981;28;20126;-66
2023/06/20 04:13:50;;;;;;;29.23;7.32;;;;;;;;;;4963457;28;20499;-66
2023/06/20 04:16:16;;;;;;;29.55;7.95;;;;;;;;;;4960200;28;20035;-66
2023/06/20 04:18:42;;;;;;;29.35;8.07;;;;;;;;;;4963376;28;20026;-67
2023/06/20 04:21:08;;;;;;;34.13;8.05;;;;;;;;;;4954854;28;20188;-64
2023/06/20 04:23:34;;;;;;;28.63;8.25;;;;;;;;;;4962978;28;20412;-67
2023/06/20 04:26:01;;;;;;;31.77;8.50;;;;;;;;;;4965910;28;20062;-66
2023/06/20 04:28:27;;;;;;;32.65;8.75;;;;;;;;;;4962650;28;20018;-66
2023/06/20 04:30:55;;;;;;;29.98;8.23;;;;;;;;;;4962032;28;20069;-65
2023/06/20 04:33:22;;;;;;;29.13;8.93;;;;;;;;;;4960156;28;20552;-66
2023/06/20 04:35:48;;;;;;;25.70;8.70;;;;;;;;;;4959919;28;20121;-66
2023/06/20 04:38:14;;;;;;;28.10;8.93;;;;;;;;;;4959124;28;20204;-65
2023/06/20 04:40:41;;;;;;;28.05;8.73;;;;;;;;;;4961608;28;20157;-66
2023/06/20 04:43:07;;;;;;;28.38;8.90;;;;;;;;;;4959340;28;20096;-65
2023/06/20 04:45:34;;;;;;;29.98;8.80;;;;;;;;;;4963281;28;20030;-66
2023/06/20 04:48:00;;;;;;;30.02;9.27;;;;;;;;;;4962591;28;20077;-66
2023/06/20 04:50:26;;;;;;;35.42;9.85;;;;;;;;;;4961058;28;20043;-66
2023/06/20 04:52:53;;;;;;;29.48;9.52;;;;;;;;;;4949806;28;20125;-66
2023/06/20 04:55:20;;;;;;;32.58;9.70;;;;;;;;;;4946201;28;20052;-65
2023/06/20 04:57:47;;;;;;;27.15;9.40;;;;;;;;;;4951578;28;20460;-65
2023/06/20 05:00:14;;;;;;;28.67;9.75;;;;;;;;;;4960132;28;20026;-65
2023/06/20 05:02:44;;;;;;;28.05;10.38;;;;;;;;;;4962334;28;20034;-66
2023/06/20 05:05:10;;;;;;;27.58;9.38;;;;;;;;;;4959270;28;20096;-65
2023/06/20 05:07:37;;;;;;;25.85;9.43;;;;;;;;;;4963611;28;20038;-68
2023/06/20 05:10:04;;;;;;;29.42;9.65;;;;;;;;;;4965510;28;20046;-66
2023/06/20 05:12:30;;;;;;;33.17;9.85;;;;;;;;;;4964536;28;20128;-65
2023/06/20 05:14:56;;;;;;;30.45;10.45;;;;;;;;;;4966194;28;20054;-66
2023/06/20 05:17:22;;;;;;;31.48;10.60;;;;;;;;;;4962144;28;20380;-66
2023/06/20 05:19:48;;;;;;;30.17;10.48;;;;;;;;;;4954502;28;20034;-67
2023/06/20 05:22:15;;;;;;;33.45;11.68;;;;;;;;;;4964541;28;20035;-66
2023/06/20 05:24:41;;;;;;;29.33;10.63;;;;;;;;;;4951776;28;20069;-66
2023/06/20 05:27:07;;;;;;;35.15;11.60;;;;;;;;;;4961047;28;20141;-66
2023/06/20 05:29:33;;;;;;;35.80;11.65;;;;;;;;;;4950268;28;20040;-67
2023/06/20 05:31:59;;;;;;;30.75;11.35;;;;;;;;;;4964977;28;20041;-66
2023/06/20 05:34:25;;;;;;;31.33;12.13;;;;;;;;;;4962069;28;20772;-66
2023/06/20 05:36:51;;;;;;;33.60;12.48;;;;;;;;;;4966295;28;20026;-67
2023/06/20 05:39:18;;;;;;;32.92;12.32;;;;;;;;;;4963186;28;20067;-67
2023/06/20 05:41:44;;;;;;;34.67;12.48;;;;;;;;;;4967383;28;20088;-68
2023/06/20 05:44:10;;;;;;;37.55;11.55;;;;;;;;;;4960845;28;20081;-68
2023/06/20 05:46:37;;;;;;;31.83;11.50;;;;;;;;;;4965624;28;20034;-66
2023/06/20 05:49:03;;;;;;;32.92;11.50;;;;;;;;;;4963863;28;20145;-67
2023/06/20 05:51:29;;;;;;;33.17;12.57;;;;;;;;;;4963215;28;20050;-67
2023/06/20 05:53:57;;;;;;;31.67;11.05;;;;;;;;;;4964281;28;20038;-67
2023/06/20 05:56:23;;;;;;;39.28;12.50;;;;;;;;;;4963096;28;20058;-66
2023/06/20 05:58:49;;;;;;;37.53;12.10;;;;;;;;;;4954782;28;20097;-67
2023/06/20 06:01:16;;;;;;;36.58;10.73;;;;;;;;;;4961005;28;20477;-67
2023/06/20 06:03:42;;;;;;;41.90;12.00;;;;;;;;;;4965835;28;20569;-67
2023/06/20 06:06:09;;;;;;;32.72;11.30;;;;;;;;;;4961970;28;20327;-65
2023/06/20 06:08:36;;;;;;;36.92;12.45;;;;;;;;;;4965807;28;20045;-66
2023/06/20 06:11:02;;;;;;;27.58;10.77;;;;;;;;;;4948632;28;20181;-66
2023/06/20 06:13:28;;;;;;;35.63;11.55;;;;;;;;;;4960842;28;20101;-65
2023/06/20 06:15:55;;;;;;;37.92;12.13;;;;;;;;;;4965076;28;20042;-66
2023/06/20 06:18:21;;;;;;;28.58;10.70;;;;;;;;;;4962872;28;20097;-66
2023/06/20 06:20:47;;;;;;;31.92;10.35;;;;;;;;;;4965134;28;20402;-66
2023/06/20 06:23:13;;;;;;;31.65;10.90;;;;;;;;;;4961831;28;20027;-65
2023/06/20 06:25:39;;;;;;;28.50;9.70;;;;;;;;;;4964436;28;20476;-66
2023/06/20 06:28:05;;;;;;;30.75;11.15;;;;;;;;;;4965797;28;20139;-66
2023/06/20 06:30:33;;;;;;;28.73;9.85;;;;;;;;;;4964898;28;20041;-66
2023/06/20 06:33:01;;;;;;;27.60;9.68;;;;;;;;;;4949344;28;20049;-66
2023/06/20 06:35:30;;;;;;;26.80;9.57;;;;;;;;;;4961905;28;20568;-67
2023/06/20 06:37:56;;;;;;;30.13;9.55;;;;;;;;;;4952661;28;20108;-67
2023/06/20 06:40:23;;;;;;;34.17;10.43;;;;;;;;;;4962483;28;20026;-66
2023/06/20 06:42:49;;;;;;;31.23;10.68;;;;;;;;;;4964041;28;20049;-66
2023/06/20 06:45:15;;;;;;;31.05;10.48;;;;;;;;;;4946503;28;20034;-66
2023/06/20 06:47:41;;;;;;;28.38;10.43;;;;;;;;;;4964070;28;20938;-67
2023/06/20 06:50:08;;;;;;;33.58;10.65;;;;;;;;;;4961345;28;20042;-67
2023/06/20 06:52:37;;;;;;;40.03;11.45;;;;;;;;;;4964050;28;20594;-66
2023/06/20 06:55:03;;;;;;;28.08;8.98;;;;;;;;;;4964440;28;20347;-67
2023/06/20 06:57:29;;;;;;;28.00;9.63;;;;;;;;;;4945542;28;20650;-66
2023/06/20 06:59:55;;;;;;;26.13;9.50;;;;;;;;;;4966905;28;20037;-65
2023/06/20 07:02:22;;;;;;;25.42;8.88;;;;;;;;;;4945718;28;20543;-66
2023/06/20 07:04:48;;;;;;;30.42;8.70;;;;;;;;;;4967797;28;20447;-67
2023/06/20 07:07:14;;;;;;;29.35;8.52;;;;;;;;;;4961012;28;20437;-66
2023/06/20 07:09:40;;;;;;;32.03;9.20;;;;;;;;;;4963026;28;20046;-67
2023/06/20 07:12:07;;;;;;;26.63;8.50;;;;;;;;;;4944476;28;20112;-67
2023/06/20 07:14:33;;;;;;;24.50;8.20;;;;;;;;;;4949870;28;20432;-66
2023/06/20 07:17:00;;;;;;;32.50;9.05;;;;;;;;;;4963186;28;20026;-66
2023/06/20 07:19:26;;;;;;;29.92;9.15;;;;;;;;;;4942997;28;21569;-66
2023/06/20 07:21:52;;;;;;;27.42;8.40;;;;;;;;;;4963384;28;20539;-67
2023/06/20 07:24:19;;;;;;;24.13;7.78;;;;;;;;;;4959206;28;20870;-67
2023/06/20 07:26:45;;;;;;;28.05;8.65;;;;;;;;;;4964454;28;20361;-67
2023/06/20 07:29:11;;;;;;;25.25;7.82;;;;;;;;;;4959479;28;20511;-66
2023/06/20 07:31:37;;;;;;;25.83;8.00;;;;;;;;;;4952652;28;20045;-66
2023/06/20 07:34:03;;;;;;;31.77;8.52;;;;;;;;;;4964166;28;20575;-67
2023/06/20 07:36:29;;;;;;;28.77;9.10;;;;;;;;;;4960871;28;20334;-67
2023/06/20 07:38:55;;;;;;;33.22;8.82;;;;;;;;;;4961695;28;20026;-67
2023/06/20 07:41:21;;;;;;;28.92;9.10;;;;;;;;;;4958580;28;20318;-66
2023/06/20 07:43:48;;;;;;;27.75;8.50;;;;;;;;;;4961472;28;20015;-66
2023/06/20 07:46:14;;;;;;;29.50;8.20;;;;;;;;;;4958122;28;20022;-66
2023/06/20 07:48:40;;;;;;;25.02;8.25;;;;;;;;;;4963154;28;20060;-67
2023/06/20 07:51:06;;;;;;;29.77;8.75;;;;;;;;;;4961880;28;20845;-66
2023/06/20 07:53:33;;;;;;;20.70;7.28;;;;;;;;;;4961938;28;20026;-66
2023/06/20 07:55:59;;;;;;;27.02;8.40;;;;;;;;;;4943407;28;20799;-67
2023/06/20 07:58:25;;;;;;;26.50;7.80;;;;;;;;;;4957877;28;20084;-66
2023/06/20 08:00:52;;;;;;;29.15;8.57;;;;;;;;;;4948591;28;20222;-66
2023/06/20 08:03:25;;;;;;;23.35;7.43;;;;;;;;;;4943633;28;20104;-66
2023/06/20 08:05:52;;;;;;;26.15;8.23;;;;;;;;;;4961185;28;20041;-67
2023/06/20 08:08:18;;;;;;;25.40;7.82;;;;;;;;;;4958493;28;20192;-67
2023/06/20 08:10:44;;;;;;;26.08;7.82;;;;;;;;;;4959362;28;20042;-66
2023/06/20 08:13:10;;;;;;;24.95;8.23;;;;;;;;;;4961154;28;20038;-67
2023/06/20 08:15:37;;;;;;;24.92;8.35;;;;;;;;;;4962354;28;20531;-67
2023/06/20 08:18:03;;;;;;;33.60;8.65;;;;;;;;;;4961199;28;20030;-67
2023/06/20 08:20:30;;;;;;;27.48;8.35;;;;;;;;;;4954159;28;20107;-67
2023/06/20 08:22:56;;;;;;;25.52;7.43;;;;;;;;;;4958722;28;20026;-66
2023/06/20 08:25:22;;;;;;;29.85;8.25;;;;;;;;;;4956335;28;20034;-67
2023/06/20 08:27:48;;;;;;;28.75;8.00;;;;;;;;;;4958596;28;20168;-66
2023/06/20 08:30:15;;;;;;;26.15;8.75;;;;;;;;;;4938075;28;20062;-66
2023/06/20 08:32:42;;;;;;;26.38;8.25;;;;;;;;;;4942978;28;21259;-66
2023/06/20 08:35:09;;;;;;;32.42;8.75;;;;;;;;;;4954951;28;20425;-67
2023/06/20 08:37:37;;;;;;;29.75;8.60;;;;;;;;;;4940688;28;20030;-67
2023/06/20 08:40:05;;;;;;;26.88;8.02;;;;;;;;;;4957857;28;20034;-67
2023/06/20 08:42:31;;;;;;;30.42;8.20;;;;;;;;;;4953542;28;20085;-66
2023/06/20 08:44:57;;;;;;;29.00;7.88;;;;;;;;;;4960311;28;20614;-67
2023/06/20 08:47:24;;;;;;;27.40;8.18;;;;;;;;;;4959307;28;20485;-67
2023/06/20 08:49:50;;;;;;;34.28;8.40;;;;;;;;;;4963028;28;20487;-66
2023/06/20 08:52:19;;;;;;;30.63;8.45;;;;;;;;;;4944326;28;20045;-67
2023/06/20 08:54:45;;;;;;;27.30;7.82;;;;;;;;;;4942533;28;20475;-67
2023/06/20 08:57:12;;;;;;;26.80;7.95;;;;;;;;;;4958116;28;20038;-67
2023/06/20 08:59:38;;;;;;;24.95;7.65;;;;;;;;;;4963113;28;20514;-68
2023/06/20 09:02:04;;;;;;;25.95;7.90;;;;;;;;;;4961991;28;20063;-67
2023/06/20 09:04:30;;;;;;;23.13;7.70;;;;;;;;;;4957001;28;20038;-67
2023/06/20 09:06:57;;;;;;;24.75;7.22;;;;;;;;;;4961733;28;20113;-68
2023/06/20 09:09:23;;;;;;;38.17;8.38;;;;;;;;;;4958033;28;20042;-68
2023/06/20 09:11:52;;;;;;;28.02;7.50;;;;;;;;;;4962345;28;20065;-68
2023/06/20 09:14:18;;;;;;;28.30;7.82;;;;;;;;;;4941513;28;20038;-69
2023/06/20 09:16:47;;;;;;;27.13;7.97;;;;;;;;;;4959014;28;20049;-68
2023/06/20 09:19:14;;;;;;;24.88;7.88;;;;;;;;;;4959305;28;20525;-68
2023/06/20 09:21:40;;;;;;;25.15;7.30;;;;;;;;;;4945552;28;20153;-67
2023/06/20 09:24:07;;;;;;;23.70;7.13;;;;;;;;;;4959976;28;20117;-70
2023/06/20 09:26:34;;;;;;;23.58;7.50;;;;;;;;;;4944378;28;20129;-67
2023/06/20 09:29:14;;;;;;;28.73;8.45;;;;;;;;;;4945532;28;20038;-68
2023/06/20 09:31:41;;;;;;;26.25;7.80;;;;;;;;;;4944337;28;20031;-68
2023/06/20 09:34:12;;;;;;;28.75;7.75;;;;;;;;;;4958483;28;20040;-69
2023/06/20 09:36:39;;;;;;;24.17;7.90;;;;;;;;;;4960639;28;20027;-69
2023/06/20 09:39:08;;;;;;;35.53;9.98;;;;;;;;;;4957456;28;20035;-70
2023/06/20 09:41:34;;;;;;;42.17;9.98;;;;;;;;;;4959786;28;20064;-68
2023/06/20 09:44:00;;;;;;;33.08;8.10;;;;;;;;;;4962283;28;20031;-70
2023/06/20 09:46:26;;;;;;;24.67;7.75;;;;;;;;;;4956666;28;20578;-69
2023/06/20 09:48:53;;;;;;;30.58;7.60;;;;;;;;;;4961197;28;20149;-70
2023/06/20 09:51:20;;;;;;;26.45;8.30;;;;;;;;;;4959278;28;20033;-67
2023/06/20 09:54:06;;;;;;;25.20;8.80;;;;;;;;;;4960593;28;20058;-67
2023/06/20 09:56:40;;;;;;;28.10;7.45;;;;;;;;;;4956021;28;20095;-67
2023/06/20 09:59:10;;;;;;;30.55;8.27;;;;;;;;;;4957785;28;20145;-67
2023/06/20 10:01:38;;;;;;;26.02;7.25;;;;;;;;;;4960926;28;20737;-67
2023/06/20 10:04:04;;;;;;;28.60;7.78;;;;;;;;;;4960503;28;20042;-67
2023/06/20 10:06:30;;;;;;;28.45;7.88;;;;;;;;;;4957868;28;20109;-67
2023/06/20 10:08:57;;;;;;;27.20;7.78;;;;;;;;;;4960002;28;20157;-68
2023/06/20 10:11:24;;;;;;;28.58;7.80;;;;;;;;;;4957044;28;20042;-67
2023/06/20 10:13:50;;;;;;;28.63;7.18;;;;;;;;;;4958036;28;20033;-68
2023/06/20 10:16:17;;;;;;;26.65;7.53;;;;;;;;;;4939303;28;20041;-68
2023/06/20 10:18:43;;;;;;;27.00;7.50;;;;;;;;;;4960683;28;20045;-68
2023/06/20 10:21:13;;;;;;;25.08;7.53;;;;;;;;;;4956681;28;20034;-70
2023/06/20 10:23:39;;;;;;;24.65;8.02;;;;;;;;;;4945519;28;20030;-68
2023/06/20 10:26:08;;;;;;;29.40;7.63;;;;;;;;;;4958126;28;20034;-68
2023/06/20 10:28:36;;;;;;;21.42;7.47;;;;;;;;;;4960841;28;20034;-68
2023/06/20 10:31:02;;;;;;;25.30;8.13;;;;;;;;;;4959920;28;20026;-67
2023/06/20 10:33:32;;;;;;;25.13;7.47;;;;;;;;;;4955995;28;20100;-69
2023/06/20 10:36:05;;;;;;;23.63;7.38;;;;;;;;;;4942375;28;20379;-69
2023/06/20 10:38:37;;;;;;;24.40;8.02;;;;;;;;;;4940681;28;20481;-68
2023/06/20 10:41:11;;;;;;;25.83;8.20;;;;;;;;;;4958741;28;20034;-67
2023/06/20 10:43:47;;;;;;;28.02;7.38;;;;;;;;;;4960692;28;20030;-67
2023/06/20 10:46:13;;;;;;;27.50;7.35;;;;;;;;;;4958007;28;20564;-68
2023/06/20 10:48:39;;;;;;;25.05;7.15;;;;;;;;;;4941794;28;20125;-67
2023/06/20 10:51:06;;;;;;;26.58;7.93;;;;;;;;;;4946241;28;20291;-68
2023/06/20 10:53:32;;;;;;;25.50;7.22;;;;;;;;;;4959819;28;20041;-68
2023/06/20 10:55:58;;;;;;;28.33;7.50;;;;;;;;;;4960664;28;20065;-67
2023/06/20 10:58:25;;;;;;;25.13;6.95;;;;;;;;;;4957775;28;20183;-68
2023/06/20 11:00:51;;;;;;;24.08;7.22;;;;;;;;;;4960021;28;20180;-68
2023/06/20 11:03:20;;;;;;;24.27;7.00;;;;;;;;;;4956637;28;20061;-68
2023/06/20 11:05:50;;;;;;;28.98;7.30;;;;;;;;;;4960932;28;20033;-67
2023/06/20 11:08:23;;;;;;;23.48;7.18;;;;;;;;;;4955862;28;20069;-67
2023/06/20 11:10:49;;;;;;;22.15;6.65;;;;;;;;;;4958950;28;21143;-68
2023/06/20 11:13:15;;;;;;;25.00;6.80;;;;;;;;;;4938809;28;20177;-69
2023/06/20 11:15:41;;;;;;;21.40;6.35;;;;;;;;;;4943401;28;20119;-68
2023/06/20 11:18:08;;;;;;;24.13;6.78;;;;;;;;;;4954896;28;20116;-69
2023/06/20 11:20:36;;;;;;;22.70;6.40;;;;;;;;;;4957437;28;20042;-69
2023/06/20 11:23:03;;;;;;;25.35;6.68;;;;;;;;;;4956175;28;20081;-68
2023/06/20 11:25:30;;;;;;;19.48;6.15;;;;;;;;;;4954258;28;20038;-69
2023/06/20 11:28:03;;;;;;;21.80;6.88;;;;;;;;;;4959776;28;20041;-68
2023/06/20 11:30:30;;;;;;;20.35;6.07;;;;;;;;;;4954123;28;20057;-68
2023/06/20 11:33:00;;;;;;;23.52;6.70;;;;;;;;;;4960172;28;20663;-69
2023/06/20 11:35:40;;;;;;;20.83;6.43;;;;;;;;;;4956811;28;25823;-68
2023/06/20 11:38:06;;;;;;;26.30;6.47;;;;;;;;;;4960101;28;20114;-67
2023/06/20 11:40:33;;;;;;;23.70;5.85;;;;;;;;;;4942977;28;20287;-67
2023/06/20 11:42:59;;;;;;;19.60;5.78;;;;;;;;;;4961065;28;20077;-67
2023/06/20 11:45:26;;;;;;;24.02;6.32;;;;;;;;;;4953464;28;20429;-66
2023/06/20 11:48:11;;;;;;;18.88;5.80;;;;;;;;;;4960557;28;20038;-67
2023/06/20 11:50:37;;;;;;;17.88;6.15;;;;;;;;;;4956414;28;20038;-67
2023/06/20 11:53:04;;;;;;;22.58;6.32;;;;;;;;;;4957513;28;20601;-67
2023/06/20 11:55:46;;;;;;;18.30;5.38;;;;;;;;;;4955854;28;20034;-67
2023/06/20 11:58:12;;;;;;;24.77;6.25;;;;;;;;;;4956691;28;20129;-67
2023/06/20 12:00:39;;;;;;;21.65;5.85;;;;;;;;;;4959455;28;20045;-67
2023/06/20 12:03:12;;;;;;;24.65;6.40;;;;;;;;;;4957633;28;20387;-67
2023/06/20 12:05:38;;;;;;;20.88;5.80;;;;;;;;;;4958792;28;20336;-66
2023/06/20 12:08:04;;;;;;;20.60;5.93;;;;;;;;;;4959404;28;20108;-66
2023/06/20 12:10:31;;;;;;;21.08;5.82;;;;;;;;;;4939920;28;20042;-67
2023/06/20 12:13:03;;;;;;;23.33;6.03;;;;;;;;;;4960469;28;20554;-66
2023/06/20 12:15:29;;;;;;;18.77;5.97;;;;;;;;;;4954007;28;20119;-67
2023/06/20 12:17:56;;;;;;;20.05;6.30;;;;;;;;;;4960995;28;20038;-67
2023/06/20 12:20:22;;;;;;;19.85;6.22;;;;;;;;;;4937216;28;20077;-65
2023/06/20 12:22:49;;;;;;;22.67;6.18;;;;;;;;;;4960229;28;20091;-66
2023/06/20 12:25:15;;;;;;;22.67;6.38;;;;;;;;;;4959224;28;20576;-67
2023/06/20 12:27:41;;;;;;;21.27;6.43;;;;;;;;;;4943800;28;20460;-66
2023/06/20 12:30:09;;;;;;;18.95;6.18;;;;;;;;;;4956604;28;20102;-66
2023/06/20 12:32:35;;;;;;;24.05;6.30;;;;;;;;;;4958984;28;20865;-65
2023/06/20 12:35:01;;;;;;;21.77;6.10;;;;;;;;;;4957130;28;20037;-67
2023/06/20 12:37:27;;;;;;;22.77;5.78;;;;;;;;;;4956311;28;20043;-66
2023/06/20 12:39:54;;;;;;;21.33;6.18;;;;;;;;;;4959225;28;20030;-65
2023/06/20 12:42:20;;;;;;;28.05;6.53;;;;;;;;;;4955646;28;20030;-65
2023/06/20 12:44:46;;;;;;;29.08;6.63;;;;;;;;;;4959198;28;20073;-66
2023/06/20 12:47:12;;;;;;;22.52;6.50;;;;;;;;;;4954329;28;20116;-67
2023/06/20 12:49:39;;;;;;;23.65;6.20;;;;;;;;;;4960021;28;20038;-69
2023/06/20 12:52:08;;;;;;;17.83;6.13;;;;;;;;;;4942544;28;20045;-67
2023/06/20 12:54:34;;;;;;;18.35;5.68;;;;;;;;;;4957450;28;20608;-66
2023/06/20 12:57:00;;;;;;;21.45;6.72;;;;;;;;;;4940686;28;20030;-66
2023/06/20 12:59:26;;;;;;;21.40;6.10;;;;;;;;;;4957595;28;22117;-66
2023/06/20 13:01:52;;;;;;;21.90;6.28;;;;;;;;;;4938200;28;20030;-66
2023/06/20 13:04:19;;;;;;;23.67;6.22;;;;;;;;;;4955546;28;20572;-66
2023/06/20 13:06:46;;;;;;;24.30;6.18;;;;;;;;;;4957675;28;20039;-67
2023/06/20 13:09:12;;;;;;;19.00;6.57;;;;;;;;;;4936491;28;20042;-67
2023/06/20 13:11:38;;;;;;;24.30;6.97;;;;;;;;;;4958295;28;20663;-68
2023/06/20 13:14:04;;;;;;;21.50;6.72;;;;;;;;;;4957469;28;20558;-68
2023/06/20 13:16:31;;;;;;;25.48;7.53;;;;;;;;;;4953749;28;20088;-69
2023/06/20 13:18:59;;;;;;;24.85;7.45;;;;;;;;;;4959220;28;20523;-67
2023/06/20 13:21:26;;;;;;;23.40;7.68;;;;;;;;;;4953728;28;20031;-66
2023/06/20 13:23:52;;;;;;;24.60;7.85;;;;;;;;;;4956981;28;20163;-65
2023/06/20 13:26:20;;;;;;;26.10;7.82;;;;;;;;;;4938728;28;20043;-67
2023/06/20 13:28:46;;;;;;;22.02;7.22;;;;;;;;;;4941564;28;20033;-67
2023/06/20 13:31:12;;;;;;;30.83;8.75;;;;;;;;;;4954768;28;20562;-66
2023/06/20 13:33:39;;;;;;;20.13;7.32;;;;;;;;;;4960192;28;20030;-66
2023/06/20 13:36:08;;;;;;;23.10;7.32;;;;;;;;;;4960841;28;20121;-67
2023/06/20 13:38:34;;;;;;;27.50;7.97;;;;;;;;;;4960431;28;20030;-66
2023/06/20 13:41:00;;;;;;;22.50;7.50;;;;;;;;;;4946143;28;20120;-67
2023/06/20 13:43:26;;;;;;;25.02;8.68;;;;;;;;;;4957565;28;22272;-69
2023/06/20 13:45:52;;;;;;;23.58;7.93;;;;;;;;;;4960964;28;20949;-66
2023/06/20 13:48:20;;;;;;;24.77;7.95;;;;;;;;;;4938559;28;20306;-66
2023/06/20 13:50:46;;;;;;;28.83;8.32;;;;;;;;;;4961350;28;20034;-66
2023/06/20 13:53:12;;;;;;;23.23;7.80;;;;;;;;;;4956149;28;20053;-67
2023/06/20 13:55:38;;;;;;;22.77;7.43;;;;;;;;;;4959982;28;20074;-66
2023/06/20 13:58:04;;;;;;;20.35;7.20;;;;;;;;;;4960780;28;20582;-64
2023/06/20 14:00:31;;;;;;;26.15;7.43;;;;;;;;;;4956704;28;20039;-67
2023/06/20 14:02:57;;;;;;;26.25;7.50;;;;;;;;;;4961879;28;20389;-67
2023/06/20 14:05:23;;;;;;;23.55;7.88;;;;;;;;;;4958942;28;20145;-67
2023/06/20 14:07:50;;;;;;;25.50;7.65;;;;;;;;;;4961864;28;20117;-68
2023/06/20 14:10:16;;;;;;;25.02;7.53;;;;;;;;;;4959470;28;20061;-65
2023/06/20 14:12:42;;;;;;;24.83;8.05;;;;;;;;;;4959163;28;20060;-62
2023/06/20 14:15:09;;;;;;;22.40;7.63;;;;;;;;;;4957073;28;20575;-62
2023/06/20 14:17:35;;;;;;;23.58;8.15;;;;;;;;;;4961392;28;20129;-62
2023/06/20 14:20:02;;;;;;;30.02;8.38;;;;;;;;;;4960762;28;20277;-62
2023/06/20 14:22:28;;;;;;;25.58;8.32;;;;;;;;;;4956394;28;20512;-61
2023/06/20 14:24:55;;;;;;;24.38;8.05;;;;;;;;;;4959316;28;20298;-63
2023/06/20 14:27:23;;;;;;;26.83;8.40;;;;;;;;;;4956546;28;20057;-62
2023/06/20 14:29:49;;;;;;;27.25;8.13;;;;;;;;;;4960793;28;20951;-62